Time;durP1;ratioP1;P1;durP2;ratioP2;P2;SDS_P1;SDS_P2;PMS_P1;PMS_P2;Temp;Humidity;BMP_temperature;BMP_pressure;BME280_temperature;BME280_humidity;BME280_pressure;Samples;Min_cycle;Max_cycle;Signal;HPM_P1;HPM_P2
2022/11/05 00:10:06;;;;;;;25.30;14.45;;;6.10;99.90;;;;;;4967230;28;20050;-76
2022/11/05 00:18:01;;;;;;;26.40;14.52;;;6.20;99.90;;;;;;4959838;28;20034;-76
2022/11/05 00:20:26;;;;;;;31.55;14.98;;;6.10;99.90;;;;;;4958749;28;20038;-76
2022/11/05 00:25:58;;;;;;;20.77;12.05;;;6.10;99.90;;;;;;4975574;28;20104;-76
2022/11/05 00:28:25;;;;;;;21.92;12.07;;;6.10;99.90;;;;;;4991022;28;20412;-76
2022/11/05 00:30:51;;;;;;;17.63;11.13;;;6.00;99.90;;;;;;4969999;28;20108;-76
2022/11/05 00:33:17;;;;;;;18.83;11.60;;;6.00;99.90;;;;;;4965951;28;20037;-76
2022/11/05 00:35:42;;;;;;;21.25;11.23;;;5.90;99.90;;;;;;4972174;28;20051;-76
2022/11/05 00:38:08;;;;;;;16.17;9.73;;;5.90;99.90;;;;;;4946976;28;20073;-76
2022/11/05 00:40:34;;;;;;;85.50;17.02;;;5.90;99.90;;;;;;4980726;28;20048;-76
2022/11/05 00:45:44;;;;;;;18.00;10.32;;;5.80;99.90;;;;;;4966874;28;20405;-76
2022/11/05 00:50:54;;;;;;;24.77;11.05;;;5.60;99.90;;;;;;4981709;28;20540;-76
2022/11/05 00:53:19;;;;;;;19.35;11.13;;;5.60;99.90;;;;;;4983015;28;20121;-76
2022/11/05 00:55:45;;;;;;;23.60;11.35;;;5.60;99.90;;;;;;4958229;28;20030;-76
2022/11/05 00:58:14;;;;;;;16.30;9.85;;;5.60;99.90;;;;;;4956106;28;20038;-76
2022/11/05 01:00:43;;;;;;;16.02;8.90;;;5.60;99.90;;;;;;4973971;28;20485;-76
2022/11/05 01:03:12;;;;;;;24.42;10.13;;;5.50;99.90;;;;;;4991452;28;20068;-76
2022/11/05 01:05:43;;;;;;;22.30;9.93;;;5.50;99.90;;;;;;4989967;28;20072;-76
2022/11/05 01:08:09;;;;;;;32.30;10.98;;;5.40;99.90;;;;;;4959666;28;20034;-76
2022/11/05 01:10:46;;;;;;;23.52;10.27;;;5.40;99.90;;;;;;4990274;28;20120;-76
2022/11/05 01:13:15;;;;;;;15.07;8.65;;;5.30;99.90;;;;;;4958523;28;20626;-76
2022/11/05 01:15:41;;;;;;;11.30;8.52;;;5.30;99.90;;;;;;4988869;28;20081;-76
2022/11/05 01:18:07;;;;;;;32.45;11.02;;;5.20;99.90;;;;;;4950320;28;20096;-76
2022/11/05 01:20:33;;;;;;;14.20;8.63;;;5.20;99.90;;;;;;4981891;28;20038;-76
2022/11/05 01:22:58;;;;;;;15.07;8.73;;;5.20;99.90;;;;;;4989921;28;20066;-76
2022/11/05 01:25:24;;;;;;;15.07;8.38;;;5.10;99.90;;;;;;4990419;28;20038;-76
2022/11/05 01:27:50;;;;;;;27.23;10.82;;;5.10;99.90;;;;;;4974094;28;20066;-76
2022/11/05 01:30:15;;;;;;;20.50;8.98;;;5.10;99.90;;;;;;4982022;28;20050;-76
2022/11/05 01:32:41;;;;;;;19.60;10.93;;;5.10;99.90;;;;;;4990798;28;20566;-76
2022/11/05 01:35:11;;;;;;;20.25;12.02;;;5.00;99.90;;;;;;4987661;28;20030;-76
2022/11/05 01:37:37;;;;;;;20.15;11.45;;;5.00;99.90;;;;;;4984436;28;20070;-77
2022/11/05 01:40:03;;;;;;;34.25;13.57;;;5.00;99.90;;;;;;4967707;28;20074;-77
2022/11/05 01:42:31;;;;;;;17.73;10.73;;;5.00;99.90;;;;;;4974602;28;20040;-77
2022/11/05 01:45:19;;;;;;;22.75;11.05;;;5.00;99.90;;;;;;4994056;28;20085;-77
2022/11/05 01:47:52;;;;;;;25.40;12.38;;;5.00;99.90;;;;;;4976805;28;20038;-77
2022/11/05 01:50:41;;;;;;;16.33;10.65;;;5.00;99.90;;;;;;4992893;28;20042;-76
2022/11/05 01:53:34;;;;;;;22.20;12.07;;;5.00;99.90;;;;;;4994610;28;20146;-76
2022/11/05 01:56:07;;;;;;;13.80;10.15;;;5.00;99.90;;;;;;4994673;28;20046;-76
2022/11/05 01:58:53;;;;;;;24.13;11.43;;;4.90;99.90;;;;;;4994594;28;20439;-76
2022/11/05 02:01:19;;;;;;;18.98;11.10;;;4.90;99.90;;;;;;4982345;28;20121;-76
2022/11/05 02:03:47;;;;;;;15.10;10.40;;;4.90;99.90;;;;;;4987059;28;20129;-76
2022/11/05 02:06:16;;;;;;;23.67;11.52;;;4.90;99.90;;;;;;4985848;28;20455;-76
2022/11/05 02:08:52;;;;;;;16.13;9.77;;;4.80;99.90;;;;;;4994170;28;20116;-76
2022/11/05 02:11:19;;;;;;;20.60;10.82;;;4.80;99.90;;;;;;4984846;28;20501;-76
2022/11/05 02:13:46;;;;;;;44.70;12.50;;;4.80;99.90;;;;;;4992284;28;20041;-76
2022/11/05 02:16:30;;;;;;;20.23;10.93;;;4.80;99.90;;;;;;4994131;28;20038;-76
2022/11/05 02:19:18;;;;;;;17.00;9.32;;;4.80;99.90;;;;;;4977693;28;20070;-76
2022/11/05 02:22:11;;;;;;;18.70;10.57;;;4.80;99.90;;;;;;4972037;28;20500;-76
2022/11/05 02:24:51;;;;;;;19.60;11.20;;;4.70;99.90;;;;;;4975434;28;20038;-76
2022/11/05 02:27:40;;;;;;;22.67;11.18;;;4.70;99.90;;;;;;4991588;28;20038;-76
2022/11/05 02:30:23;;;;;;;21.00;12.00;;;4.70;99.90;;;;;;4984551;28;20074;-77
2022/11/05 02:33:03;;;;;;;21.42;12.18;;;4.80;99.90;;;;;;4956393;28;20397;-77
2022/11/05 02:35:34;;;;;;;23.00;11.65;;;4.80;99.90;;;;;;4977550;28;20042;-76
2022/11/05 02:38:26;;;;;;;21.63;11.93;;;4.80;99.90;;;;;;4982281;28;20043;-76
2022/11/05 02:41:17;;;;;;;16.95;11.75;;;4.80;99.90;;;;;;4933936;28;20138;-76
2022/11/05 02:43:51;;;;;;;21.38;11.85;;;4.80;99.90;;;;;;4987487;28;20096;-76
2022/11/05 02:46:35;;;;;;;25.73;11.18;;;4.80;99.90;;;;;;4961527;28;20224;-76
2022/11/05 02:49:20;;;;;;;20.00;11.30;;;4.80;99.90;;;;;;4993405;28;20034;-77
2022/11/05 02:52:02;;;;;;;19.75;12.07;;;4.80;99.90;;;;;;4975438;28;20038;-77
2022/11/05 02:54:33;;;;;;;31.75;14.02;;;4.80;99.90;;;;;;4977271;28;20035;-76
2022/11/05 02:57:01;;;;;;;17.63;11.13;;;4.80;99.90;;;;;;4992743;28;20069;-76
2022/11/05 02:59:27;;;;;;;16.95;12.02;;;4.80;99.90;;;;;;4992672;28;20077;-76
2022/11/05 03:01:54;;;;;;;23.90;12.38;;;4.80;99.90;;;;;;4953025;28;20038;-76
2022/11/05 03:04:22;;;;;;;20.25;12.55;;;4.70;99.90;;;;;;4982697;28;20039;-76
2022/11/05 03:07:02;;;;;;;26.83;13.82;;;4.70;99.90;;;;;;4989163;28;20060;-76
2022/11/05 03:09:53;;;;;;;34.92;13.15;;;4.70;99.90;;;;;;4992506;28;20046;-76
2022/11/05 03:12:40;;;;;;;17.13;11.75;;;4.70;99.90;;;;;;4977078;28;20441;-76
2022/11/05 03:15:25;;;;;;;14.68;11.38;;;4.70;99.90;;;;;;4959775;28;20113;-76
2022/11/05 03:18:25;;;;;;;17.55;11.07;;;4.70;99.90;;;;;;4973643;28;20034;-76
2022/11/05 03:21:10;;;;;;;20.67;12.90;;;4.60;99.90;;;;;;4965025;28;20038;-76
2022/11/05 03:23:53;;;;;;;22.67;12.55;;;4.60;99.90;;;;;;4973735;28;20038;-77
2022/11/05 03:26:30;;;;;;;22.95;11.93;;;4.60;99.90;;;;;;4941915;28;20053;-77
2022/11/05 03:29:01;;;;;;;25.45;11.75;;;4.60;99.90;;;;;;4972762;28;20043;-77
2022/11/05 03:31:29;;;;;;;17.70;10.90;;;4.50;99.90;;;;;;4959785;28;20034;-76
2022/11/05 03:33:58;;;;;;;20.60;11.70;;;4.50;99.90;;;;;;4968868;28;20045;-76
2022/11/05 03:36:32;;;;;;;18.88;10.60;;;4.50;99.90;;;;;;4987498;28;20054;-76
2022/11/05 03:39:03;;;;;;;25.58;11.38;;;4.50;99.90;;;;;;4992541;28;20038;-76
2022/11/05 03:41:32;;;;;;;16.95;11.10;;;4.50;99.90;;;;;;4965011;28;20035;-76
2022/11/05 03:44:02;;;;;;;19.02;11.88;;;4.60;99.90;;;;;;4991933;28;20034;-76
2022/11/05 03:46:36;;;;;;;17.80;10.57;;;4.60;99.90;;;;;;4959309;28;20385;-76
2022/11/05 03:49:04;;;;;;;19.25;11.55;;;4.60;99.90;;;;;;4976284;28;20038;-76
2022/11/05 03:51:52;;;;;;;19.67;10.77;;;4.60;99.90;;;;;;4976124;28;20496;-76
2022/11/05 03:54:18;;;;;;;16.85;9.98;;;4.60;99.90;;;;;;4973044;28;20046;-78
2022/11/05 03:56:55;;;;;;;20.20;10.95;;;4.70;99.90;;;;;;4971195;28;20042;-77
2022/11/05 03:59:22;;;;;;;15.18;10.32;;;4.70;99.90;;;;;;4991099;28;20043;-76
2022/11/05 04:01:48;;;;;;;17.50;10.25;;;4.70;99.90;;;;;;4983940;28;20027;-76
2022/11/05 04:04:14;;;;;;;15.20;10.02;;;4.70;99.90;;;;;;4991979;28;20042;-76
2022/11/05 04:14:54;;;;;;;17.45;10.20;;;4.60;99.90;;;;;;4975007;28;20516;-76
2022/11/05 04:17:20;;;;;;;15.90;9.68;;;4.60;99.90;;;;;;4983748;28;20042;-76
2022/11/05 04:25:17;;;;;;;21.17;9.95;;;4.50;99.90;;;;;;4975987;28;20113;-76
2022/11/05 04:27:44;;;;;;;33.47;11.98;;;4.50;99.90;;;;;;4959668;28;20038;-76
2022/11/05 04:30:20;;;;;;;18.05;10.95;;;4.50;99.90;;;;;;4973463;28;20046;-77
2022/11/05 04:33:07;;;;;;;17.45;10.38;;;4.50;99.90;;;;;;4990363;28;20121;-77
2022/11/05 04:35:44;;;;;;;18.92;10.55;;;4.40;99.90;;;;;;4984138;28;20030;-76
2022/11/05 04:38:15;;;;;;;17.17;10.07;;;4.40;99.90;;;;;;4991706;28;20105;-76
2022/11/05 04:40:42;;;;;;;15.20;9.98;;;4.40;99.90;;;;;;4985508;28;20131;-76
2022/11/05 04:43:12;;;;;;;22.63;11.52;;;4.40;99.90;;;;;;4987923;28;20451;-76
2022/11/05 04:45:37;;;;;;;24.30;11.82;;;4.40;99.90;;;;;;4990500;28;20045;-76
2022/11/05 04:48:03;;;;;;;19.80;12.27;;;4.40;99.90;;;;;;4976714;28;20039;-76
2022/11/05 04:50:29;;;;;;;26.42;12.15;;;4.40;99.90;;;;;;4974903;28;20401;-76
2022/11/05 04:52:56;;;;;;;28.77;13.73;;;4.50;99.90;;;;;;4991527;28;20038;-76
2022/11/05 04:55:21;;;;;;;24.25;13.05;;;4.50;99.90;;;;;;4988488;28;20084;-77
2022/11/05 04:57:51;;;;;;;21.58;13.68;;;4.50;99.90;;;;;;4985474;28;20117;-77
2022/11/05 05:00:18;;;;;;;28.58;14.93;;;4.50;99.90;;;;;;4989051;28;20100;-76
2022/11/05 05:02:44;;;;;;;26.83;13.73;;;4.60;99.90;;;;;;4953495;28;20031;-76
2022/11/05 05:05:10;;;;;;;24.42;13.30;;;4.50;99.90;;;;;;4955989;28;20038;-76
2022/11/05 05:07:36;;;;;;;38.03;14.57;;;4.50;99.90;;;;;;4961737;28;20496;-76
2022/11/05 05:10:04;;;;;;;23.35;13.38;;;4.50;99.90;;;;;;4950184;28;20386;-76
2022/11/05 05:12:31;;;;;;;29.83;13.57;;;4.50;99.90;;;;;;4963110;28;20035;-76
2022/11/05 05:14:57;;;;;;;23.92;14.02;;;4.50;99.90;;;;;;4955815;28;20038;-76
2022/11/05 05:17:23;;;;;;;19.40;13.30;;;4.40;99.90;;;;;;4982568;28;20136;-76
2022/11/05 05:22:33;;;;;;;25.70;14.65;;;4.40;99.90;;;;;;4989888;28;20045;-76
2022/11/05 05:24:58;;;;;;;25.95;15.35;;;4.40;99.90;;;;;;4990330;28;20405;-76
2022/11/05 05:27:28;;;;;;;33.28;16.65;;;4.40;99.90;;;;;;4958368;28;20046;-76
2022/11/05 05:29:55;;;;;;;33.50;16.77;;;4.50;99.90;;;;;;4990398;28;20042;-76
2022/11/05 05:32:20;;;;;;;26.13;17.02;;;4.50;99.90;;;;;;4990937;28;20038;-76
2022/11/05 05:34:46;;;;;;;38.03;20.40;;;4.50;99.90;;;;;;4990216;28;20568;-76
2022/11/05 05:37:12;;;;;;;37.15;22.33;;;4.60;99.90;;;;;;4989516;28;20046;-76
2022/11/05 05:39:37;;;;;;;36.63;21.50;;;4.80;99.90;;;;;;4956872;28;20501;-76
2022/11/05 05:42:03;;;;;;;52.45;24.83;;;4.80;99.90;;;;;;4990757;28;20448;-76
2022/11/05 05:44:28;;;;;;;43.40;23.17;;;5.00;99.90;;;;;;4990764;28;20042;-76
2022/11/05 05:46:54;;;;;;;36.75;21.45;;;5.10;99.90;;;;;;4958364;28;20045;-76
2022/11/05 05:49:20;;;;;;;47.50;24.52;;;5.20;99.90;;;;;;4961733;28;20142;-76
2022/11/05 05:51:48;;;;;;;46.65;23.02;;;5.30;99.90;;;;;;4965376;28;20042;-76
2022/11/05 05:54:13;;;;;;;33.80;21.13;;;5.40;99.90;;;;;;4958444;28;20081;-76
2022/11/05 05:56:41;;;;;;;39.13;22.83;;;5.40;99.90;;;;;;4972265;28;20062;-76
2022/11/05 05:59:06;;;;;;;36.05;20.73;;;5.40;99.90;;;;;;4981827;28;20049;-76
2022/11/05 06:01:32;;;;;;;33.47;18.85;;;5.50;99.90;;;;;;4979772;28;20128;-76
2022/11/05 06:03:58;;;;;;;35.75;19.38;;;5.50;99.90;;;;;;4989850;28;20035;-76
2022/11/05 06:06:23;;;;;;;36.85;20.73;;;5.50;99.90;;;;;;4986988;28;20097;-76
2022/11/05 06:08:49;;;;;;;53.80;21.27;;;5.40;99.90;;;;;;4985012;28;20042;-76
2022/11/05 06:11:14;;;;;;;27.00;16.85;;;5.40;99.90;;;;;;4981291;28;20413;-76
2022/11/05 06:13:40;;;;;;;34.72;18.70;;;5.40;99.90;;;;;;4974387;28;20042;-76
2022/11/05 06:16:07;;;;;;;27.30;17.73;;;5.30;99.90;;;;;;4989566;28;20088;-77
2022/11/05 06:18:34;;;;;;;28.30;17.23;;;5.30;99.90;;;;;;4989753;28;20065;-77
2022/11/05 06:21:00;;;;;;;24.52;15.70;;;5.30;99.90;;;;;;4983983;28;20069;-77
2022/11/05 06:23:26;;;;;;;26.92;16.80;;;5.20;99.90;;;;;;4990389;28;20047;-77
2022/11/05 06:25:51;;;;;;;27.80;15.38;;;5.20;99.90;;;;;;4990026;28;20038;-77
2022/11/05 06:28:17;;;;;;;19.50;12.70;;;5.10;99.90;;;;;;4989268;28;20045;-76
2022/11/05 06:30:50;;;;;;;19.48;13.68;;;5.10;99.90;;;;;;4984548;28;20061;-76
2022/11/05 06:33:16;;;;;;;;;;;5.00;99.90;;;;;;4994681;28;20385;-76
2022/11/05 06:35:41;;;;;;;19.88;14.88;;;5.00;99.90;;;;;;4972734;28;19918;-77
2022/11/05 06:38:07;;;;;;;31.58;16.33;;;5.00;99.90;;;;;;4990873;28;20042;-77
2022/11/05 06:40:32;;;;;;;23.77;15.63;;;5.00;99.90;;;;;;4955009;28;20047;-76
2022/11/05 06:42:58;;;;;;;27.42;15.73;;;5.00;99.90;;;;;;4974937;28;20036;-76
2022/11/05 06:45:23;;;;;;;21.55;15.68;;;5.00;99.90;;;;;;4988490;28;20049;-76
2022/11/05 06:47:57;;;;;;;23.65;15.40;;;5.00;99.90;;;;;;4963054;28;20117;-76
2022/11/05 06:50:23;;;;;;;28.02;17.60;;;5.00;99.90;;;;;;4977362;28;20046;-76
2022/11/05 06:53:02;;;;;;;25.13;17.23;;;5.00;99.90;;;;;;4993154;28;20141;-76
2022/11/05 06:55:29;;;;;;;22.95;16.13;;;5.00;99.90;;;;;;4989164;28;20296;-76
2022/11/05 06:57:55;;;;;;;32.13;16.65;;;4.90;99.90;;;;;;4987757;28;20038;-76
2022/11/05 07:00:22;;;;;;;27.00;17.38;;;4.90;99.90;;;;;;4986052;28;20480;-76
2022/11/05 07:02:48;;;;;;;21.13;15.38;;;4.90;99.90;;;;;;4991417;28;20033;-76
2022/11/05 07:05:14;;;;;;;21.17;16.15;;;5.00;99.90;;;;;;4951088;28;20042;-77
2022/11/05 07:07:41;;;;;;;19.77;14.90;;;5.00;99.90;;;;;;4969583;28;20627;-77
2022/11/05 07:10:10;;;;;;;23.80;16.08;;;5.00;99.90;;;;;;4974647;28;20074;-76
2022/11/05 07:12:36;;;;;;;25.40;16.90;;;5.00;99.90;;;;;;4985712;28;20121;-76
2022/11/05 07:15:02;;;;;;;37.38;18.85;;;5.00;99.90;;;;;;4968747;28;20127;-76
2022/11/05 07:17:28;;;;;;;24.20;17.23;;;5.00;99.90;;;;;;4984205;28;20093;-76
2022/11/05 07:19:54;;;;;;;29.90;17.45;;;5.10;99.90;;;;;;4991974;28;20042;-77
2022/11/05 07:22:20;;;;;;;34.42;18.67;;;5.10;99.90;;;;;;4979142;28;20053;-76
2022/11/05 07:24:46;;;;;;;18.98;16.73;;;5.10;99.90;;;;;;4991804;28;20034;-76
2022/11/05 07:27:15;;;;;;;29.60;17.92;;;5.10;99.90;;;;;;4982625;28;20565;-76
2022/11/05 07:29:41;;;;;;;29.48;19.65;;;5.10;99.90;;;;;;4986476;28;20038;-76
2022/11/05 07:32:06;;;;;;;36.30;20.30;;;5.20;99.90;;;;;;4992251;28;20083;-76
2022/11/05 07:34:32;;;;;;;27.20;18.33;;;5.20;99.90;;;;;;4992995;28;20039;-76
2022/11/05 07:36:58;;;;;;;30.52;19.67;;;5.20;99.90;;;;;;4993088;28;20046;-76
2022/11/05 07:39:23;;;;;;;28.27;19.55;;;5.20;99.90;;;;;;4992737;28;20050;-76
2022/11/05 07:41:53;;;;;;;26.27;18.92;;;5.30;99.90;;;;;;4989420;28;20041;-76
2022/11/05 07:44:22;;;;;;;23.33;17.48;;;5.30;99.90;;;;;;4956200;28;20065;-76
2022/11/05 07:46:48;;;;;;;26.83;18.30;;;5.30;99.90;;;;;;4975769;28;20057;-76
2022/11/05 07:49:14;;;;;;;31.95;19.80;;;5.30;99.90;;;;;;4960176;28;20046;-77
2022/11/05 07:51:39;;;;;;;36.67;21.45;;;5.40;99.90;;;;;;4976432;28;20382;-77
2022/11/05 07:54:05;;;;;;;27.52;19.83;;;5.40;99.90;;;;;;4974325;28;20050;-77
2022/11/05 07:56:31;;;;;;;33.50;19.77;;;5.40;99.90;;;;;;4954469;28;20120;-76
2022/11/05 07:58:56;;;;;;;33.13;19.90;;;5.50;99.90;;;;;;4974338;28;20386;-76
2022/11/05 08:01:22;;;;;;;35.45;21.58;;;5.60;99.90;;;;;;4956123;28;20489;-76
2022/11/05 08:03:47;;;;;;;32.40;20.58;;;5.60;99.90;;;;;;4990915;28;20042;-76
2022/11/05 08:06:13;;;;;;;28.27;19.23;;;5.70;99.90;;;;;;4991514;28;20065;-76
2022/11/05 08:08:38;;;;;;;23.85;16.88;;;5.70;99.90;;;;;;4983431;28;20034;-76
2022/11/05 08:11:05;;;;;;;25.83;19.92;;;5.80;99.90;;;;;;4983947;28;20133;-77
2022/11/05 08:13:32;;;;;;;26.58;20.00;;;5.90;99.90;;;;;;4992310;28;20038;-76
2022/11/05 08:15:58;;;;;;;35.05;22.25;;;6.00;99.90;;;;;;4991171;28;20034;-77
2022/11/05 08:18:30;;;;;;;25.92;19.83;;;6.10;99.90;;;;;;4991269;28;20046;-76
2022/11/05 08:20:58;;;;;;;35.20;22.85;;;6.10;99.90;;;;;;4982922;28;20041;-76
2022/11/05 08:23:24;;;;;;;38.90;23.67;;;6.20;99.90;;;;;;4974970;28;20042;-76
2022/11/05 08:25:49;;;;;;;28.52;21.10;;;6.20;99.90;;;;;;4991931;28;20045;-76
2022/11/05 08:28:15;;;;;;;25.95;20.27;;;6.30;99.90;;;;;;4959478;28;20433;-76
2022/11/05 08:30:41;;;;;;;37.35;22.77;;;6.40;99.90;;;;;;4991667;28;20057;-76
2022/11/05 08:33:09;;;;;;;31.17;21.77;;;6.40;99.90;;;;;;4982482;28;20042;-76
2022/11/05 08:35:36;;;;;;;39.97;23.92;;;6.50;99.90;;;;;;4968225;28;20103;-76
2022/11/05 08:38:04;;;;;;;26.70;19.92;;;6.50;99.90;;;;;;4991550;28;20045;-76
2022/11/05 08:40:32;;;;;;;27.17;20.73;;;6.60;99.90;;;;;;4959351;28;20057;-76
2022/11/05 08:42:59;;;;;;;29.45;20.95;;;6.70;99.90;;;;;;4975784;28;20046;-76
2022/11/05 08:45:26;;;;;;;30.13;21.50;;;6.80;99.90;;;;;;4959513;28;20046;-76
2022/11/05 08:48:03;;;;;;;28.02;22.38;;;6.90;99.90;;;;;;4982192;28;20037;-76
2022/11/05 08:50:29;;;;;;;27.80;21.08;;;7.00;99.90;;;;;;4956237;28;20065;-76
2022/11/05 08:52:55;;;;;;;25.75;19.63;;;7.00;99.90;;;;;;4971575;28;20508;-76
2022/11/05 08:55:21;;;;;;;26.67;20.15;;;7.10;99.90;;;;;;4972048;28;20138;-76
2022/11/05 08:57:46;;;;;;;33.78;23.42;;;7.20;99.90;;;;;;4956402;28;20447;-76
2022/11/05 09:00:13;;;;;;;22.50;19.27;;;7.20;99.90;;;;;;4958985;28;20064;-76
2022/11/05 09:02:39;;;;;;;27.05;20.88;;;7.30;99.90;;;;;;4985287;28;20031;-76
2022/11/05 09:05:05;;;;;;;23.75;19.30;;;7.30;99.90;;;;;;4953095;28;20465;-76
2022/11/05 09:07:31;;;;;;;26.23;20.15;;;7.40;99.90;;;;;;4982436;28;20034;-76
2022/11/05 09:09:56;;;;;;;21.55;17.42;;;7.50;99.90;;;;;;4974830;28;20042;-76
2022/11/05 09:12:22;;;;;;;26.50;19.60;;;7.50;99.90;;;;;;4990378;28;20056;-76
2022/11/05 09:14:47;;;;;;;19.65;15.93;;;7.60;99.90;;;;;;4966286;28;20049;-76
2022/11/05 09:17:18;;;;;;;19.50;16.52;;;7.70;99.90;;;;;;4958544;28;20073;-76
2022/11/05 09:19:44;;;;;;;19.27;17.10;;;7.80;99.90;;;;;;4991094;28;20512;-76
2022/11/05 09:22:11;;;;;;;20.15;17.65;;;7.80;99.90;;;;;;4991127;28;20038;-76
2022/11/05 09:24:38;;;;;;;24.08;17.63;;;7.90;99.90;;;;;;4974896;28;20042;-75
2022/11/05 09:27:04;;;;;;;21.42;16.67;;;8.00;99.90;;;;;;4991081;28;20469;-76
2022/11/05 09:29:30;;;;;;;25.17;17.80;;;8.10;99.90;;;;;;4957755;28;20489;-75
2022/11/05 09:31:56;;;;;;;21.75;17.35;;;8.20;99.90;;;;;;4983519;28;20050;-76
2022/11/05 09:34:22;;;;;;;21.50;16.05;;;8.60;99.90;;;;;;4987744;28;20547;-76
2022/11/05 09:36:48;;;;;;;23.67;16.25;;;9.00;99.90;;;;;;4987677;28;20128;-76
2022/11/05 09:39:13;;;;;;;19.15;12.52;;;9.50;99.90;;;;;;4987458;28;20087;-76
2022/11/05 09:41:42;;;;;;;13.43;11.70;;;10.00;99.90;;;;;;4987708;28;20038;-76
2022/11/05 09:44:16;;;;;;;12.35;9.82;;;10.30;99.90;;;;;;4965208;28;20041;-76
2022/11/05 09:46:50;;;;;;;11.30;8.57;;;10.60;99.90;;;;;;4984411;28;20065;-76
2022/11/05 09:49:24;;;;;;;10.50;7.30;;;10.90;99.90;;;;;;4990924;28;20405;-76
2022/11/05 09:51:52;;;;;;;7.82;6.05;;;11.20;99.90;;;;;;4990198;28;20129;-76
2022/11/05 09:54:21;;;;;;;7.90;5.88;;;11.50;99.90;;;;;;4982519;28;20089;-76
2022/11/05 09:56:47;;;;;;;9.45;6.05;;;11.60;99.90;;;;;;4991071;28;20092;-76
2022/11/05 09:59:27;;;;;;;8.00;5.10;;;11.90;99.90;;;;;;4990629;28;20050;-76
2022/11/05 10:02:08;;;;;;;7.22;4.53;;;12.00;99.90;;;;;;4991066;28;20050;-76
2022/11/05 10:04:34;;;;;;;5.88;4.65;;;11.70;99.90;;;;;;4991659;28;20042;-76
2022/11/05 10:07:02;;;;;;;6.10;4.53;;;11.60;99.90;;;;;;4984982;28;20548;-76
2022/11/05 10:09:37;;;;;;;6.35;4.45;;;11.60;99.90;;;;;;4988904;28;20031;-76
2022/11/05 10:12:44;;;;;;;5.45;4.13;;;11.60;99.90;;;;;;4990793;28;20571;-76
2022/11/05 10:15:17;;;;;;;5.65;4.20;;;11.60;99.90;;;;;;4956483;28;20050;-76
2022/11/05 10:17:45;;;;;;;;;;;11.70;99.90;;;;;;4960953;28;20038;-76
2022/11/05 10:20:31;;;;;;;5.90;3.50;;;11.80;99.90;;;;;;4982420;28;19965;-76
2022/11/05 10:23:07;;;;;;;4.80;3.35;;;11.90;99.90;;;;;;4994423;28;20038;-76
2022/11/05 10:25:39;;;;;;;5.80;3.55;;;11.90;99.90;;;;;;4994217;28;20452;-76
2022/11/05 10:28:07;;;;;;;5.25;3.40;;;11.90;99.90;;;;;;4968582;28;20038;-76
2022/11/05 10:30:33;;;;;;;6.25;2.88;;;11.80;99.90;;;;;;4961470;28;20535;-76
2022/11/05 10:33:02;;;;;;;5.45;2.97;;;11.70;99.90;;;;;;4967277;28;20038;-75
2022/11/05 10:35:32;;;;;;;4.40;3.00;;;11.70;99.90;;;;;;4977950;28;20373;-76
2022/11/05 10:37:58;;;;;;;4.75;3.53;;;11.70;99.90;;;;;;4961623;28;20125;-76
2022/11/05 10:41:02;;;;;;;6.65;3.75;;;11.60;99.90;;;;;;4993751;28;20138;-76
2022/11/05 10:43:46;;;;;;;4.65;3.67;;;11.70;99.90;;;;;;4977804;28;20080;-76
2022/11/05 10:46:18;;;;;;;5.68;3.35;;;11.60;99.90;;;;;;4960537;28;20044;-76
2022/11/05 10:49:01;;;;;;;8.48;3.30;;;11.60;99.90;;;;;;4961363;28;20046;-76
2022/11/05 10:51:28;;;;;;;5.47;3.00;;;11.50;99.90;;;;;;4977381;28;20108;-76
2022/11/05 10:54:04;;;;;;;6.00;3.72;;;11.40;99.90;;;;;;4977378;28;20046;-76
2022/11/05 10:56:37;;;;;;;5.80;3.72;;;11.40;99.90;;;;;;4957978;28;20034;-76
2022/11/05 10:59:06;;;;;;;5.00;4.05;;;11.50;99.90;;;;;;4965685;28;20200;-76
2022/11/05 11:01:32;;;;;;;6.72;4.30;;;11.70;99.90;;;;;;4987197;28;20131;-76
2022/11/05 11:04:19;;;;;;;6.25;4.13;;;11.90;99.90;;;;;;4977194;28;20034;-76
2022/11/05 11:06:54;;;;;;;4.93;3.38;;;12.10;99.90;;;;;;4961164;28;20038;-76
2022/11/05 11:09:23;;;;;;;7.60;4.30;;;12.10;99.90;;;;;;4993229;28;20172;-75
2022/11/05 11:12:12;;;;;;;7.80;4.68;;;11.90;99.90;;;;;;4988701;28;20442;-76
2022/11/05 11:14:39;;;;;;;6.93;4.05;;;11.90;99.90;;;;;;4985792;28;20082;-75
2022/11/05 11:17:28;;;;;;;6.88;4.43;;;11.90;99.90;;;;;;4984327;28;20069;-76
2022/11/05 11:20:24;;;;;;;6.63;4.32;;;11.90;99.90;;;;;;4993052;28;20057;-75
2022/11/05 11:23:08;;;;;;;5.53;4.00;;;11.80;99.90;;;;;;4960740;28;20039;-75
2022/11/05 11:25:59;;;;;;;8.35;4.38;;;11.70;99.90;;;;;;4987232;28;20035;-76
2022/11/05 11:28:30;;;;;;;9.75;4.63;;;11.60;99.90;;;;;;4983648;28;20046;-75
2022/11/05 11:31:19;;;;;;;7.82;4.53;;;11.50;99.90;;;;;;5007498;23;20544;-79
2022/11/05 11:33:49;;;;;;;8.20;4.60;;;11.50;99.90;;;;;;4996234;28;20120;-79
2022/11/05 11:36:18;;;;;;;7.50;4.05;;;11.40;99.90;;;;;;4983137;28;20108;-79
2022/11/05 11:38:45;;;;;;;7.35;4.55;;;11.30;99.90;;;;;;4978705;28;20100;-79
2022/11/05 11:41:26;;;;;;;6.85;4.60;;;11.20;99.90;;;;;;4974631;28;20129;-79
2022/11/05 11:44:04;;;;;;;7.95;5.00;;;11.20;99.90;;;;;;5009866;28;20043;-79
2022/11/05 11:46:35;;;;;;;8.52;5.30;;;11.20;99.90;;;;;;4997140;28;20089;-79
2022/11/05 11:49:07;;;;;;;6.57;4.53;;;11.10;99.90;;;;;;4998490;28;20081;-80
2022/11/05 11:51:43;;;;;;;5.53;4.57;;;11.10;99.90;;;;;;4979767;28;20077;-79
2022/11/05 11:54:23;;;;;;;7.28;4.90;;;11.10;99.90;;;;;;4984323;28;20042;-79
2022/11/05 11:57:18;;;;;;;6.85;5.05;;;11.10;99.90;;;;;;4999112;28;20483;-79
2022/11/05 11:59:44;;;;;;;5.82;4.45;;;11.10;99.90;;;;;;4983360;28;20046;-80
2022/11/05 12:02:27;;;;;;;6.78;4.80;;;11.10;99.90;;;;;;4976694;28;20093;-79
2022/11/05 12:05:15;;;;;;;7.20;4.93;;;11.10;99.90;;;;;;4984583;28;20046;-79
2022/11/05 12:08:00;;;;;;;4.88;4.38;;;11.10;99.90;;;;;;4983049;28;20039;-79
2022/11/05 12:11:08;;;;;;;8.52;5.38;;;11.00;99.90;;;;;;4982837;28;20097;-79
2022/11/05 12:14:32;;;;;;;5.53;4.95;;;11.10;99.90;;;;;;4982452;28;20049;-80
2022/11/05 12:17:41;;;;;;;7.95;5.32;;;11.10;99.90;;;;;;4956749;28;20497;-79
2022/11/05 12:20:28;;;;;;;6.82;4.50;;;11.20;99.90;;;;;;4976517;28;20168;-80
2022/11/05 12:23:26;;;;;;;7.13;4.82;;;11.20;99.90;;;;;;4969871;28;20058;-80
2022/11/05 12:26:34;;;;;;;8.73;5.18;;;11.30;99.90;;;;;;4970620;28;20520;-81
2022/11/05 12:29:32;;;;;;;6.88;4.43;;;11.40;99.90;;;;;;4974098;28;20046;-81
2022/11/05 12:32:58;;;;;;;7.95;4.38;;;11.30;99.90;;;;;;5007737;28;20113;-81
2022/11/05 12:35:34;;;;;;;9.20;4.05;;;11.40;99.90;;;;;;4979119;28;20054;-78
2022/11/05 12:38:28;;;;;;;5.68;3.75;;;11.40;99.90;;;;;;4992651;28;20033;-80
2022/11/05 12:41:13;;;;;;;7.57;3.80;;;11.50;99.90;;;;;;4980050;28;20042;-79
2022/11/05 12:43:55;;;;;;;5.63;3.75;;;11.50;99.90;;;;;;4988245;28;20045;-80
2022/11/05 12:46:58;;;;;;;8.00;4.05;;;11.50;99.90;;;;;;5006658;28;20045;-81
2022/11/05 12:49:30;;;;;;;7.00;3.73;;;11.60;99.90;;;;;;4980949;28;20054;-79
2022/11/05 12:52:12;;;;;;;9.30;4.18;;;11.60;99.90;;;;;;4991203;28;20392;-80
2022/11/05 12:55:11;;;;;;;6.20;3.55;;;11.70;99.90;;;;;;4986135;28;20045;-80
2022/11/05 12:57:47;;;;;;;7.90;3.67;;;11.70;99.90;;;;;;4975168;28;20035;-80
2022/11/05 13:00:39;;;;;;;7.18;4.10;;;11.80;99.90;;;;;;4996535;28;20053;-80
2022/11/05 13:03:43;;;;;;;9.60;4.53;;;11.70;99.90;;;;;;4978906;28;20053;-80
2022/11/05 13:06:46;;;;;;;;;;;;;;;;;;;;;
2022/11/05 13:09:42;;;;;;;7.28;4.60;;;11.80;99.90;;;;;;5019925;28;20478;-79
2022/11/05 13:12:17;;;;;;;8.00;4.93;;;11.70;99.90;;;;;;4982761;28;20058;-79
2022/11/05 13:14:59;;;;;;;6.18;4.35;;;11.70;99.90;;;;;;4981696;28;20460;-80
2022/11/05 13:17:44;;;;;;;7.05;4.47;;;11.70;99.90;;;;;;4985506;28;20070;-79
2022/11/05 13:20:36;;;;;;;11.17;5.50;;;11.60;99.90;;;;;;4977531;28;20054;-80
2022/11/05 13:23:32;;;;;;;7.15;5.20;;;11.60;99.90;;;;;;4979642;28;20309;-80
2022/11/05 13:26:42;;;;;;;7.00;4.70;;;11.60;99.90;;;;;;4985579;28;20396;-79
2022/11/05 13:29:55;;;;;;;7.85;4.70;;;11.60;99.90;;;;;;5003507;28;20472;-80
2022/11/05 13:32:45;;;;;;;7.03;4.60;;;11.60;99.90;;;;;;4998297;28;20407;-80
2022/11/05 13:38:57;;;;;;;8.27;4.57;;;11.60;99.90;;;;;;4987623;28;20041;-80
2022/11/05 13:42:06;;;;;;;8.07;4.72;;;11.60;99.90;;;;;;5012911;28;20423;-80
2022/11/05 13:45:07;;;;;;;6.72;4.72;;;11.50;99.90;;;;;;4984709;28;20129;-80
2022/11/05 13:47:54;;;;;;;8.63;4.70;;;11.50;99.90;;;;;;5006872;28;20458;-80
2022/11/05 13:51:00;;;;;;;9.75;4.60;;;11.40;99.90;;;;;;4990916;28;20045;-81
2022/11/05 13:53:38;;;;;;;6.95;4.95;;;11.40;99.90;;;;;;4999266;28;20034;-80
2022/11/05 13:56:48;;;;;;;7.10;4.70;;;11.30;99.90;;;;;;4990400;28;20518;-79